Time;durP1;ratioP1;P1;durP2;ratioP2;P2;SDS_P1;SDS_P2;PMS_P1;PMS_P2;Temp;Humidity;BMP_temperature;BMP_pressure;BME280_temperature;BME280_humidity;BME280_pressure;Samples;Min_cycle;Max_cycle;Signal;HPM_P1;HPM_P2
2022/09/04 00:02:26;;;;;;;18.30;9.60;;;;;;;11.85;100.00;95367.91;5051964;28;20048;-68
2022/09/04 00:05:02;;;;;;;13.02;8.48;;;;;;;11.81;100.00;95366.75;5054052;28;20041;-69
2022/09/04 00:07:37;;;;;;;13.52;8.25;;;;;;;11.83;100.00;95370.72;5049763;28;20517;-68
2022/09/04 00:10:42;;;;;;;18.63;8.20;;;;;;;11.85;100.00;95378.34;5047665;28;20547;-69
2022/09/04 00:13:20;;;;;;;12.93;7.82;;;;;;;11.81;100.00;95385.00;5006147;28;20052;-68
2022/09/04 00:16:08;;;;;;;14.20;8.18;;;;;;;11.80;100.00;95381.59;5046234;28;20044;-69
2022/09/04 00:18:55;;;;;;;14.25;8.52;;;;;;;11.89;100.00;95379.47;5049238;28;20123;-68
2022/09/04 00:21:28;;;;;;;17.45;8.05;;;;;;;11.91;100.00;95385.28;5049586;28;20053;-68
2022/09/04 00:24:07;;;;;;;14.10;8.20;;;;;;;11.92;100.00;95394.72;5055093;28;20049;-68
2022/09/04 00:26:53;;;;;;;14.63;8.60;;;;;;;11.99;100.00;95390.19;5051758;28;20189;-68
2022/09/04 00:29:43;;;;;;;13.70;8.60;;;;;;;11.98;100.00;95387.81;5032842;28;20139;-69
2022/09/04 00:32:29;;;;;;;12.80;8.18;;;;;;;12.01;100.00;95393.38;5060614;28;20051;-69
2022/09/04 00:35:01;;;;;;;16.23;8.48;;;;;;;11.91;100.00;95372.25;5052353;28;20082;-69
2022/09/04 00:37:34;;;;;;;23.48;9.13;;;;;;;11.89;100.00;95353.38;5050332;28;20041;-68
2022/09/04 00:40:25;;;;;;;16.30;8.48;;;;;;;12.07;100.00;95391.66;5053596;28;20048;-69
2022/09/04 00:43:15;;;;;;;13.07;7.57;;;;;;;12.07;100.00;95393.50;5056357;28;20097;-69
2022/09/04 00:46:07;;;;;;;12.05;7.97;;;;;;;11.97;100.00;95386.19;5050024;28;20053;-68
2022/09/04 00:49:01;;;;;;;12.50;7.57;;;;;;;11.89;100.00;95389.13;5051613;28;20056;-69
2022/09/04 00:51:36;;;;;;;13.98;7.57;;;;;;;11.86;100.00;95385.13;5053676;28;20036;-68
2022/09/04 00:54:15;;;;;;;23.50;8.07;;;;;;;11.89;100.00;95395.13;5055237;28;20253;-69
2022/09/04 00:56:57;;;;;;;13.52;8.57;;;;;;;11.93;100.00;95385.84;5047526;28;20052;-69
2022/09/04 00:59:33;;;;;;;11.30;7.43;;;;;;;11.98;100.00;95378.16;5045185;28;20411;-68
2022/09/04 01:02:13;;;;;;;15.52;9.07;;;;;;;12.02;100.00;95379.28;5048410;28;20512;-69
2022/09/04 01:04:52;;;;;;;15.70;8.80;;;;;;;12.08;100.00;95382.00;5051841;28;20040;-68
2022/09/04 01:07:34;;;;;;;19.70;8.77;;;;;;;12.09;100.00;95378.38;5050523;28;20540;-69
2022/09/04 01:10:22;;;;;;;12.52;7.82;;;;;;;12.12;100.00;95377.91;5051161;28;20049;-69
2022/09/04 01:13:11;;;;;;;26.38;7.93;;;;;;;12.09;100.00;95371.34;5067622;28;20049;-69
2022/09/04 01:15:54;;;;;;;15.38;9.25;;;;;;;12.08;100.00;95367.13;5048503;28;20128;-68
2022/09/04 01:18:31;;;;;;;12.35;9.18;;;;;;;12.01;100.00;95379.50;5051323;28;20044;-69
2022/09/04 01:21:29;;;;;;;16.10;9.43;;;;;;;12.02;100.00;95374.06;5048046;28;20471;-69
2022/09/04 01:24:18;;;;;;;18.13;8.82;;;;;;;11.98;100.00;95372.94;5046379;28;20132;-68
2022/09/04 01:26:55;;;;;;;11.10;7.90;;;;;;;12.01;100.00;95377.69;5047431;28;20040;-68
2022/09/04 01:29:34;;;;;;;13.50;8.20;;;;;;;11.94;100.00;95382.25;5050888;28;20044;-68
2022/09/04 01:32:18;;;;;;;12.77;8.10;;;;;;;11.89;100.00;95374.25;5050154;28;20063;-69
2022/09/04 01:35:14;;;;;;;20.48;7.72;;;;;;;11.85;100.00;95384.34;5050949;28;20060;-69
2022/09/04 01:37:50;;;;;;;12.63;7.70;;;;;;;11.77;100.00;95389.09;5042605;28;20437;-69
2022/09/04 01:40:28;;;;;;;11.90;7.60;;;;;;;11.69;100.00;95379.00;5052402;28;20051;-68
2022/09/04 01:43:06;;;;;;;13.65;7.80;;;;;;;11.58;100.00;95375.34;5051930;28;20051;-68
2022/09/04 01:45:41;;;;;;;11.93;7.35;;;;;;;11.50;100.00;95371.22;5057088;28;20062;-69
2022/09/04 01:48:15;;;;;;;12.75;7.78;;;;;;;11.32;100.00;95368.69;5055292;28;20099;-69
2022/09/04 01:50:47;;;;;;;12.43;7.88;;;;;;;11.23;100.00;95371.59;5052630;28;20051;-68
2022/09/04 01:53:23;;;;;;;13.15;7.35;;;;;;;11.19;100.00;95370.44;5042395;28;20049;-69
2022/09/04 01:56:16;;;;;;;12.25;8.10;;;;;;;11.19;100.00;95372.25;5048340;28;20041;-69
2022/09/04 01:58:52;;;;;;;13.15;8.32;;;;;;;11.14;100.00;95367.69;5057071;28;20419;-68
2022/09/04 02:01:46;;;;;;;10.80;7.32;;;;;;;11.16;100.00;95367.47;5044101;28;20136;-69
2022/09/04 02:04:38;;;;;;;11.95;7.50;;;;;;;11.13;100.00;95366.13;5044363;28;20170;-68
2022/09/04 02:07:23;;;;;;;12.30;7.05;;;;;;;11.09;100.00;95376.19;5044123;28;20048;-69
2022/09/04 02:10:06;;;;;;;15.98;7.47;;;;;;;11.13;100.00;95373.13;5066844;28;20049;-68
2022/09/04 02:12:52;;;;;;;11.50;7.80;;;;;;;11.11;100.00;95375.97;5044190;28;20036;-67
2022/09/04 02:15:21;;;;;;;15.90;8.10;;;;;;;11.14;100.00;95367.69;5042926;28;20135;-68
2022/09/04 02:18:10;;;;;;;14.13;7.95;;;;;;;11.12;100.00;95368.94;5043537;28;20492;-69
2022/09/04 02:20:44;;;;;;;12.45;7.78;;;;;;;11.11;100.00;95368.16;5032410;28;20048;-68
2022/09/04 02:23:27;;;;;;;14.15;7.72;;;;;;;11.01;100.00;95357.47;5045546;28;20048;-69
2022/09/04 02:26:00;;;;;;;13.88;8.43;;;;;;;11.02;100.00;95370.28;5045338;28;20052;-68
2022/09/04 02:29:02;;;;;;;11.32;8.13;;;;;;;10.97;100.00;95377.16;5041008;28;20049;-68
2022/09/04 02:31:29;;;;;;;11.10;7.25;;;;;;;10.94;100.00;95364.56;5039106;28;20049;-68
2022/09/04 02:33:59;;;;;;;16.08;7.50;;;;;;;10.93;100.00;95357.75;5041066;28;20053;-69
2022/09/04 02:36:41;;;;;;;16.08;7.95;;;;;;;10.94;100.00;95354.13;5040862;28;20095;-69
2022/09/04 02:39:10;;;;;;;13.57;7.63;;;;;;;10.94;100.00;95348.94;5044373;28;20036;-68
2022/09/04 02:41:49;;;;;;;13.52;8.18;;;;;;;10.89;100.00;95337.34;5042422;28;20135;-68
2022/09/04 02:44:35;;;;;;;12.95;8.20;;;;;;;10.88;100.00;95348.78;5042771;28;20176;-69
2022/09/04 02:47:11;;;;;;;19.42;8.20;;;;;;;10.88;100.00;95338.38;5042241;28;20632;-68
2022/09/04 02:50:07;;;;;;;19.15;7.93;;;;;;;10.93;100.00;95339.50;5054057;28;20132;-68
2022/09/04 02:52:46;;;;;;;13.82;7.95;;;;;;;10.89;100.00;95339.16;5030379;28;20053;-68
2022/09/04 02:55:29;;;;;;;14.68;8.35;;;;;;;10.93;100.00;95347.31;5055535;28;20054;-68
2022/09/04 02:58:38;;;;;;;14.50;7.80;;;;;;;10.94;100.00;95354.13;5054138;28;20094;-69
2022/09/04 03:01:30;;;;;;;12.15;8.13;;;;;;;10.92;100.00;95349.13;5041496;28;20261;-68
2022/09/04 03:04:14;;;;;;;16.58;7.63;;;;;;;10.90;100.00;95351.97;5053232;28;20055;-68
2022/09/04 03:07:12;;;;;;;16.00;8.65;;;;;;;10.92;100.00;95348.34;5049566;28;20033;-68
2022/09/04 03:09:45;;;;;;;17.63;8.15;;;;;;;10.90;100.00;95357.16;5054693;28;20056;-66
2022/09/04 03:12:38;;;;;;;15.98;8.85;;;;;;;10.93;100.00;95370.78;5054108;28;20044;-67
2022/09/04 03:15:13;;;;;;;10.98;7.22;;;;;;;10.85;100.00;95380.47;5051151;28;20049;-68
2022/09/04 03:17:54;;;;;;;12.82;8.00;;;;;;;10.98;100.00;95386.56;5060906;28;20044;-68
2022/09/04 03:20:30;;;;;;;13.93;7.97;;;;;;;10.97;100.00;95377.16;5058374;28;20606;-67
2022/09/04 03:23:19;;;;;;;14.07;8.50;;;;;;;11.02;100.00;95385.09;5058707;28;20834;-68
2022/09/04 03:26:01;;;;;;;18.98;9.27;;;;;;;11.07;100.00;95378.22;5057460;28;20512;-69
2022/09/04 03:28:36;;;;;;;18.63;9.77;;;;;;;11.14;100.00;95387.75;5056052;28;20524;-68
2022/09/04 03:31:20;;;;;;;14.80;8.90;;;;;;;11.12;100.00;95382.78;5045223;28;20067;-68
2022/09/04 03:33:56;;;;;;;18.42;9.73;;;;;;;11.04;100.00;95372.66;5043436;28;20040;-68
2022/09/04 03:36:30;;;;;;;22.73;11.90;;;;;;;11.02;100.00;95374.66;5048321;28;20624;-68
2022/09/04 03:39:27;;;;;;;23.50;12.05;;;;;;;10.96;100.00;95370.34;5046884;28;20376;-68
2022/09/04 03:42:18;;;;;;;18.75;10.98;;;;;;;10.86;100.00;95350.81;5017885;28;20136;-67
2022/09/04 03:44:55;;;;;;;13.63;9.13;;;;;;;10.77;100.00;95367.78;5045799;28;20080;-67
2022/09/04 03:47:38;;;;;;;14.23;8.13;;;;;;;10.71;100.00;95371.22;5045839;28;20044;-67
2022/09/04 03:50:29;;;;;;;14.88;8.77;;;;;;;10.71;100.00;95373.84;5049880;28;20049;-67
2022/09/04 03:53:19;;;;;;;13.07;8.57;;;;;;;10.67;100.00;95383.09;5056272;28;20044;-67
2022/09/04 03:56:01;;;;;;;13.27;7.95;;;;;;;10.67;100.00;95388.31;5037435;28;20076;-67
2022/09/04 03:59:04;;;;;;;19.00;8.05;;;;;;;10.74;100.00;95389.03;5051270;28;20048;-67
2022/09/04 04:01:33;;;;;;;14.57;8.73;;;;;;;10.84;100.00;95410.19;5017326;28;20045;-67
2022/09/04 04:04:34;;;;;;;17.13;9.18;;;;;;;10.96;100.00;95401.63;5047621;28;20509;-67
2022/09/04 04:07:10;;;;;;;18.80;9.27;;;;;;;11.14;100.00;95412.00;5046941;28;20045;-67
2022/09/04 04:09:46;;;;;;;18.02;9.15;;;;;;;11.26;100.00;95414.69;5050708;28;20299;-66
2022/09/04 04:12:26;;;;;;;18.50;10.18;;;;;;;11.38;100.00;95414.72;5062157;28;20087;-67
2022/09/04 04:15:02;;;;;;;20.48;10.43;;;;;;;11.54;100.00;95429.78;5047428;28;20073;-67
2022/09/04 04:17:55;;;;;;;16.00;10.13;;;;;;;11.65;100.00;95431.63;5049595;28;20361;-67
2022/09/04 04:20:43;;;;;;;16.67;10.05;;;;;;;11.77;100.00;95449.13;5052679;28;20569;-67
2022/09/04 04:23:55;;;;;;;17.13;10.68;;;;;;;11.88;100.00;95444.94;5045470;28;20412;-67
2022/09/04 04:26:44;;;;;;;21.42;10.60;;;;;;;11.95;100.00;95451.69;5032794;28;20053;-67
2022/09/04 04:29:19;;;;;;;20.92;9.45;;;;;;;11.98;100.00;95456.47;5047485;28;20114;-67
2022/09/04 04:32:12;;;;;;;28.02;9.10;;;;;;;12.09;100.00;95462.72;5050112;28;20041;-67
2022/09/04 04:34:48;;;;;;;16.30;10.15;;;;;;;12.13;100.00;95456.03;5048794;28;20077;-65
2022/09/04 04:37:30;;;;;;;15.35;10.15;;;;;;;12.19;100.00;95464.78;5047030;28;20510;-67
2022/09/04 04:40:19;;;;;;;19.10;10.15;;;;;;;12.28;100.00;95473.91;5052301;28;20060;-67
2022/09/04 04:42:48;;;;;;;22.40;11.00;;;;;;;12.32;100.00;95482.88;5050161;28;20052;-67
2022/09/04 04:48:35;;;;;;;25.55;12.27;;;;;;;12.33;100.00;95458.31;5049088;28;20044;-67
2022/09/04 04:51:07;;;;;;;36.33;14.15;;;;;;;12.59;100.00;95487.66;5049946;28;20049;-67
2022/09/04 04:53:56;;;;;;;28.33;13.32;;;;;;;12.71;100.00;95475.38;5044644;28;20411;-67
2022/09/04 04:56:33;;;;;;;39.05;13.27;;;;;;;12.83;100.00;95472.75;5052512;28;20048;-67
2022/09/04 04:59:22;;;;;;;45.45;15.25;;;;;;;12.95;100.00;95481.38;5050963;28;20069;-66
2022/09/04 05:02:03;;;;;;;33.95;13.73;;;;;;;13.11;100.00;95484.31;5050234;28;20053;-67
2022/09/04 05:04:52;;;;;;;62.97;16.88;;;;;;;13.26;100.00;95486.44;5047995;28;20048;-67
2022/09/04 05:07:33;;;;;;;48.72;15.13;;;;;;;13.36;100.00;95478.81;5044005;28;20315;-67
2022/09/04 05:10:11;;;;;;;47.67;14.80;;;;;;;13.56;100.00;95476.59;5046310;28;20128;-67
2022/09/04 05:13:23;;;;;;;36.65;13.65;;;;;;;13.70;100.00;95486.78;5046456;28;20056;-67
2022/09/04 05:16:11;;;;;;;27.27;12.30;;;;;;;13.84;100.00;95472.38;5036138;28;20430;-67
2022/09/04 05:18:57;;;;;;;28.35;11.63;;;;;;;13.89;100.00;95456.75;5042256;28;20044;-67
2022/09/04 05:21:47;;;;;;;33.13;12.05;;;;;;;13.98;100.00;95472.09;5048014;28;20552;-68
2022/09/04 05:24:17;;;;;;;31.05;13.27;;;;;;;14.01;100.00;95466.38;5041546;28;20040;-69
2022/09/04 05:26:57;;;;;;;41.22;13.05;;;;;;;14.09;100.00;95468.59;5047935;28;20480;-68
2022/09/04 05:29:50;;;;;;;28.67;11.05;;;;;;;14.18;100.00;95482.91;5045631;28;20044;-68
2022/09/04 05:32:22;;;;;;;31.27;11.57;;;;;;;14.22;100.00;95483.22;5041807;28;20061;-69
2022/09/04 05:35:13;;;;;;;42.38;12.07;;;;;;;14.34;100.00;95489.19;5050135;28;20041;-69
2022/09/04 05:37:52;;;;;;;28.85;12.15;;;;;;;14.45;100.00;95495.38;5044583;28;20033;-69
2022/09/04 05:40:37;;;;;;;109.85;14.45;;;;;;;14.50;100.00;95484.97;5045640;28;20060;-69
2022/09/04 05:43:30;;;;;;;45.63;13.77;;;;;;;14.61;100.00;95491.97;5044858;28;20494;-68
2022/09/04 05:46:16;;;;;;;50.88;12.25;;;;;;;14.61;100.00;95484.13;5046277;28;20818;-68
2022/09/04 05:49:15;;;;;;;44.75;11.65;;;;;;;14.66;100.00;95493.91;5048486;28;20441;-69
2022/09/04 05:52:07;;;;;;;25.10;10.90;;;;;;;14.68;100.00;95503.09;5042159;28;20045;-68
2022/09/04 05:54:37;;;;;;;29.27;13.23;;;;;;;14.80;100.00;95504.81;5044392;28;20515;-69
2022/09/04 05:57:41;;;;;;;45.63;14.43;;;;;;;14.96;100.00;95497.97;5049408;28;21002;-69
2022/09/04 06:00:17;;;;;;;111.95;14.43;;;;;;;15.01;100.00;95498.84;5048283;28;20139;-68
2022/09/04 06:03:16;;;;;;;31.80;12.18;;;;;;;15.08;100.00;95491.56;5052494;28;20040;-68
2022/09/04 06:05:57;;;;;;;34.70;12.05;;;;;;;15.16;100.00;95490.38;5045722;28;20037;-68
2022/09/04 06:08:42;;;;;;;24.98;11.32;;;;;;;15.17;100.00;95478.06;5050271;28;20095;-68
2022/09/04 06:15:49;;;;;;;24.15;10.70;;;;;;;15.32;100.00;95451.97;5069195;28;20045;-68
2022/09/04 06:18:45;;;;;;;30.90;11.65;;;;;;;15.29;100.00;95423.63;4989033;28;20531;-68
2022/09/04 06:21:35;;;;;;;17.15;9.57;;;;;;;15.53;100.00;95465.34;5040097;28;20055;-68
2022/09/04 06:24:02;;;;;;;21.08;11.90;;;;;;;15.63;100.00;95473.34;5050765;28;20111;-68
2022/09/04 06:27:05;;;;;;;23.52;10.73;;;;;;;15.60;100.00;95476.44;5051132;28;20524;-67
2022/09/04 06:29:40;;;;;;;18.67;10.45;;;;;;;15.80;100.00;95466.19;5050649;28;20040;-72
2022/09/04 06:32:13;;;;;;;18.85;10.82;;;;;;;15.92;100.00;95460.78;5049713;28;20430;-72
2022/09/04 06:34:57;;;;;;;20.30;11.75;;;;;;;16.09;100.00;95463.28;5047446;28;20048;-71
2022/09/04 06:37:34;;;;;;;36.78;19.10;;;;;;;16.12;100.00;95468.06;5050372;28;20501;-71
2022/09/04 06:40:20;;;;;;;25.45;14.75;;;;;;;16.18;100.00;95461.00;5037267;28;20162;-71
2022/09/04 06:43:07;;;;;;;28.75;16.63;;;;;;;16.32;100.00;95462.16;5051740;28;20481;-72
2022/09/04 06:45:42;;;;;;;25.17;14.38;;;;;;;16.46;100.00;95473.06;5052443;28;20048;-71
2022/09/04 06:48:20;;;;;;;21.08;12.73;;;;;;;16.61;100.00;95470.50;5047533;28;20441;-70
2022/09/04 06:50:58;;;;;;;29.73;15.23;;;;;;;16.55;100.00;95468.91;5044861;28;20127;-70
2022/09/04 06:53:47;;;;;;;21.73;12.60;;;;;;;16.67;100.00;95468.69;5042024;28;20045;-71
2022/09/04 06:56:31;;;;;;;21.55;13.30;;;;;;;16.85;100.00;95474.63;5046240;28;20060;-70
2022/09/04 06:59:33;;;;;;;24.40;13.18;;;;;;;17.08;100.00;95483.97;5045884;28;20642;-71
2022/09/04 07:02:00;;;;;;;22.48;11.85;;;;;;;17.30;100.00;95476.69;4985025;28;20053;-71
2022/09/04 07:04:47;;;;;;;16.88;10.65;;;;;;;17.42;100.00;95468.59;5039527;28;20363;-71
2022/09/04 07:07:29;;;;;;;23.35;12.82;;;;;;;17.57;100.00;95481.00;5051008;28;20029;-72
2022/09/04 07:10:21;;;;;;;21.70;12.45;;;;;;;17.68;100.00;95468.66;5064560;28;20477;-71
2022/09/04 07:13:00;;;;;;;22.08;12.23;;;;;;;17.86;100.00;95478.75;5054882;28;20040;-69
2022/09/04 07:15:45;;;;;;;21.83;11.50;;;;;;;17.98;100.00;95481.13;5042834;28;20517;-69
2022/09/04 07:18:30;;;;;;;22.67;13.13;;;;;;;17.98;100.00;95485.63;5042308;28;20088;-69
2022/09/04 07:21:16;;;;;;;21.38;12.93;;;;;;;18.12;100.00;95476.16;5046915;28;20482;-69
2022/09/04 07:24:03;;;;;;;23.80;12.38;;;;;;;18.30;100.00;95477.47;5048783;28;20051;-66
2022/09/04 07:26:38;;;;;;;23.05;12.13;;;;;;;18.51;100.00;95479.06;5052749;28;20474;-66
2022/09/04 07:29:29;;;;;;;17.10;11.10;;;;;;;18.73;100.00;95485.91;5046529;28;20048;-67
2022/09/04 07:32:07;;;;;;;18.25;10.50;;;;;;;18.89;100.00;95476.91;5049177;28;20049;-67
2022/09/04 07:34:33;;;;;;;18.67;11.63;;;;;;;18.93;100.00;95473.75;5050301;28;20565;-72
2022/09/04 07:37:11;;;;;;;17.90;11.00;;;;;;;18.87;100.00;95476.41;5049478;28;20136;-74
2022/09/04 07:40:12;;;;;;;16.17;11.32;;;;;;;19.07;100.00;95475.56;5051498;28;20606;-72
2022/09/04 07:43:07;;;;;;;17.55;11.20;;;;;;;19.05;100.00;95482.97;5048579;28;20044;-72
2022/09/04 07:45:49;;;;;;;19.45;11.85;;;;;;;19.08;100.00;95492.19;5047185;28;20040;-72
2022/09/04 07:48:17;;;;;;;16.20;11.45;;;;;;;18.82;100.00;95494.88;5067636;28;20429;-72
2022/09/04 07:51:03;;;;;;;22.05;11.98;;;;;;;18.81;100.00;95503.84;5055978;28;20665;-73
2022/09/04 07:53:45;;;;;;;19.92;11.65;;;;;;;18.86;100.00;95493.28;5051221;28;20044;-67
2022/09/04 07:56:18;;;;;;;19.40;11.25;;;;;;;18.94;100.00;95496.44;5053884;28;20460;-67
2022/09/04 08:02:02;;;;;;;20.00;12.13;;;;;;;19.14;100.00;95496.41;5106183;27;20128;-66
2022/09/04 08:04:57;;;;;;;20.05;13.43;;;;;;;19.41;100.00;95503.16;5121141;27;20423;-74
2022/09/04 08:07:33;;;;;;;18.02;11.70;;;;;;;19.52;100.00;95498.63;5100485;27;20633;-74
2022/09/04 08:10:32;;;;;;;19.05;12.85;;;;;;;19.57;100.00;95502.06;5102116;27;20469;-69
2022/09/04 08:13:32;;;;;;;20.02;11.40;;;;;;;19.47;100.00;95494.16;5076354;27;20100;-67
2022/09/04 08:16:06;;;;;;;15.98;11.75;;;;;;;19.72;100.00;95503.03;5120471;27;20039;-66
2022/09/04 08:18:57;;;;;;;14.98;10.20;;;;;;;19.91;100.00;95513.78;5122948;27;20147;-67
2022/09/04 08:21:38;;;;;;;15.90;9.73;;;;;;;19.89;100.00;95506.13;5103874;27;20122;-67
2022/09/04 08:24:32;;;;;;;15.30;10.02;;;;;;;20.09;100.00;95507.09;5104791;27;20039;-67
2022/09/04 08:27:26;;;;;;;15.23;10.07;;;;;;;20.22;100.00;95504.63;5123294;27;20058;-65
2022/09/04 08:30:09;;;;;;;11.70;7.63;;;;;;;20.57;100.00;95507.25;5118865;27;20035;-68
2022/09/04 08:33:03;;;;;;;10.15;7.03;;;;;;;20.88;100.00;95504.38;5119716;27;20043;-67
2022/09/04 08:35:41;;;;;;;8.68;5.88;;;;;;;21.19;99.72;95510.13;5118733;27;20527;-67
2022/09/04 08:38:45;;;;;;;8.15;6.18;;;;;;;21.49;99.66;95506.38;5117004;27;20476;-67
2022/09/04 08:41:34;;;;;;;12.50;7.70;;;;;;;21.72;96.49;95498.69;5121409;27;20047;-69
2022/09/04 08:44:03;;;;;;;9.00;6.68;;;;;;;21.83;96.82;95502.78;5117276;27;21070;-70
2022/09/04 08:46:53;;;;;;;8.30;6.03;;;;;;;22.03;95.22;95503.59;5090269;27;20059;-67
2022/09/04 08:49:50;;;;;;;6.65;5.07;;;;;;;22.32;87.62;95498.91;5102862;27;20092;-67
2022/09/04 08:52:49;;;;;;;8.48;5.35;;;;;;;22.37;79.43;95497.28;5119662;27;20104;-67
2022/09/04 08:55:31;;;;;;;7.85;5.40;;;;;;;22.71;79.54;95495.13;5121394;27;20055;-68
2022/09/04 08:58:21;;;;;;;6.63;5.10;;;;;;;23.03;76.92;95496.16;5121758;27;20047;-67
2022/09/04 09:01:09;;;;;;;5.40;4.38;;;;;;;23.22;76.42;95492.66;5125947;27;20053;-68
2022/09/04 09:03:48;;;;;;;4.20;3.80;;;;;;;23.46;70.69;95487.94;5114008;27;20081;-67
2022/09/04 09:06:23;;;;;;;6.10;4.60;;;;;;;23.72;72.86;95490.06;5115815;27;20053;-67
2022/09/04 09:08:59;;;;;;;5.00;4.18;;;;;;;23.82;69.69;95481.91;5115921;27;20506;-67
2022/09/04 09:11:58;;;;;;;4.90;4.13;;;;;;;24.00;69.63;95479.38;5110385;27;20436;-67
2022/09/04 09:15:02;;;;;;;4.60;4.00;;;;;;;23.99;66.54;95472.50;5068854;28;20535;-68
2022/09/04 09:17:37;;;;;;;8.07;3.80;;;;;;;24.03;64.61;95484.09;5103584;27;20500;-67
2022/09/04 09:20:13;;;;;;;5.10;3.97;;;;;;;24.09;64.55;95493.53;5109624;27;20039;-67
2022/09/04 09:23:14;;;;;;;4.78;3.97;;;;;;;23.94;63.37;95492.00;5107510;27;20040;-68
2022/09/04 09:25:50;;;;;;;5.15;3.40;;;;;;;24.08;62.12;95494.63;5086490;27;20047;-68
2022/09/04 09:28:17;;;;;;;4.57;3.10;;;;;;;24.33;60.04;95497.81;5109603;27;20416;-67
2022/09/04 09:31:21;;;;;;;4.20;3.05;;;;;;;24.28;60.44;95495.25;5108664;27;20095;-67
2022/09/04 09:34:10;;;;;;;4.63;3.65;;;;;;;24.12;59.50;95498.25;5105268;27;20075;-66
2022/09/04 09:36:44;;;;;;;6.30;3.45;;;;;;;24.15;60.28;95483.56;5105542;27;20040;-67
2022/09/04 09:39:29;;;;;;;3.95;3.30;;;;;;;24.47;57.85;95477.22;5110563;27;20051;-67
2022/09/04 09:41:58;;;;;;;4.85;3.67;;;;;;;24.68;59.26;95474.84;5121128;27;20040;-67
2022/09/04 09:44:52;;;;;;;4.50;3.65;;;;;;;24.90;58.12;95474.06;5084250;28;20051;-67
2022/09/04 09:47:50;;;;;;;5.38;3.60;;;;;;;25.21;58.20;95473.22;5101494;27;20039;-67
2022/09/04 09:50:27;;;;;;;3.72;3.10;;;;;;;24.74;55.82;95470.19;5103730;27;20066;-67
2022/09/04 09:53:09;;;;;;;5.68;3.65;;;;;;;24.49;57.04;95469.72;5101836;28;20058;-66
2022/09/04 09:56:20;;;;;;;3.65;3.30;;;;;;;24.54;57.10;95466.97;5102207;27;20518;-68
2022/09/04 09:59:17;;;;;;;6.18;3.45;;;;;;;25.03;57.62;95468.91;5096536;27;20047;-68
2022/09/04 10:02:09;;;;;;;4.22;2.90;;;;;;;25.56;56.10;95460.00;5098417;27;20036;-68
2022/09/04 10:05:26;;;;;;;7.82;5.35;;;;;;;26.01;53.95;95457.09;5098155;27;20063;-67
2022/09/04 10:08:11;;;;;;;4.75;3.60;;;;;;;26.02;51.98;95448.00;5098816;28;20485;-68
2022/09/04 10:10:59;;;;;;;9.40;7.72;;;;;;;26.22;53.39;95451.13;5101623;28;20054;-68
2022/09/04 10:13:52;;;;;;;3.97;3.47;;;;;;;26.15;52.76;95461.50;5100850;27;20055;-67
2022/09/04 10:16:22;;;;;;;4.05;3.15;;;;;;;26.01;51.59;95467.78;5098488;28;20521;-67
2022/09/04 10:18:55;;;;;;;4.20;2.85;;;;;;;25.90;51.80;95467.28;5082971;28;20864;-70
2022/09/04 10:22:00;;;;;;;4.32;3.45;;;;;;;25.81;52.39;95469.16;5101967;27;20042;-66
2022/09/04 10:24:36;;;;;;;;;;;;;;;25.80;52.55;95450.78;5101722;28;20051;-67
2022/09/04 10:27:35;;;;;;;4.70;3.90;;;;;;;25.65;54.07;95438.69;5083045;28;19931;-66
2022/09/04 10:30:20;;;;;;;4.75;3.63;;;;;;;25.85;52.92;95437.28;5061871;28;20044;-67
2022/09/04 10:33:03;;;;;;;7.30;4.55;;;;;;;26.06;54.46;95443.59;5084085;28;20071;-67
2022/09/04 10:36:31;;;;;;;4.13;3.50;;;;;;;26.23;53.08;95442.00;5101778;27;20055;-68
2022/09/04 10:42:44;;;;;;;4.20;3.47;;;;;;;26.33;52.15;95436.34;5104041;27;20134;-68
2022/09/04 10:45:37;;;;;;;5.80;3.65;;;;;;;27.00;53.31;95439.50;5081125;28;20425;-65
2022/09/04 10:48:35;;;;;;;7.65;3.20;;;;;;;27.42;51.80;95442.28;5100786;27;20075;-66
2022/09/04 10:51:33;;;;;;;5.32;3.65;;;;;;;27.58;50.64;95435.25;5103649;27;20500;-66
2022/09/04 10:54:09;;;;;;;6.28;3.50;;;;;;;27.69;48.25;95429.53;5104697;27;20473;-65
2022/09/04 10:56:55;;;;;;;4.32;3.28;;;;;;;27.52;48.49;95425.88;5100240;27;20123;-65
2022/09/04 10:59:31;;;;;;;6.63;3.80;;;;;;;27.40;48.76;95425.78;5086447;27;20419;-66
2022/09/04 11:02:34;;;;;;;4.28;3.55;;;;;;;27.42;48.50;95436.94;5102672;27;20039;-66
2022/09/04 11:05:01;;;;;;;7.45;3.35;;;;;;;27.17;47.71;95431.41;5098962;27;20050;-66
2022/09/04 11:07:47;;;;;;;5.80;3.22;;;;;;;27.59;47.94;95431.50;5105995;27;20047;-67
2022/09/04 11:10:17;;;;;;;4.80;3.08;;;;;;;27.61;47.09;95421.25;5104273;27;20053;-68
2022/09/04 11:13:26;;;;;;;4.85;3.78;;;;;;;27.85;46.63;95417.13;5105428;27;20047;-67
2022/09/04 11:16:22;;;;;;;5.00;3.75;;;;;;;27.70;48.76;95420.41;5082270;27;20045;-67
2022/09/04 11:19:10;;;;;;;7.50;4.18;;;;;;;27.92;46.62;95428.13;5102992;27;20051;-67
2022/09/04 11:21:43;;;;;;;4.88;3.38;;;;;;;28.30;46.28;95421.03;5104317;27;20452;-67
2022/09/04 11:24:51;;;;;;;9.80;3.47;;;;;;;28.73;43.50;95409.88;5104642;27;20046;-66
2022/09/04 11:27:37;;;;;;;4.60;3.10;;;;;;;28.92;40.97;95409.34;5104226;27;20046;-68
2022/09/04 11:30:20;;;;;;;4.68;3.03;;;;;;;28.14;42.31;95408.25;5085030;28;20513;-69
2022/09/04 11:33:24;;;;;;;5.35;3.15;;;;;;;27.78;44.82;95400.81;5100557;27;20039;-71
2022/09/04 11:36:00;;;;;;;7.72;3.67;;;;;;;27.74;43.54;95399.91;5087101;27;20058;-70
2022/09/04 11:38:52;;;;;;;4.40;3.08;;;;;;;28.14;44.20;95407.47;5105198;27;20048;-70
2022/09/04 11:41:23;;;;;;;4.35;3.15;;;;;;;28.22;42.83;95398.59;5104460;27;20030;-71
2022/09/04 11:44:16;;;;;;;5.85;3.47;;;;;;;28.38;43.71;95391.47;5098802;27;20043;-72
2022/09/04 11:47:07;;;;;;;4.30;3.40;;;;;;;28.89;40.65;95387.78;5084963;28;20040;-68
2022/09/04 11:50:09;;;;;;;4.22;2.85;;;;;;;29.15;40.21;95388.25;5078774;28;20067;-68
2022/09/04 11:52:59;;;;;;;6.70;5.53;;;;;;;29.19;38.33;95384.88;5064884;27;20143;-69
2022/09/04 11:55:36;;;;;;;5.82;3.28;;;;;;;29.23;38.55;95380.44;5087129;27;20081;-69
2022/09/04 11:58:39;;;;;;;4.45;2.65;;;;;;;29.45;37.87;95393.34;5103524;27;20500;-69
2022/09/04 12:01:25;;;;;;;5.80;2.50;;;;;;;29.86;36.80;95386.13;5101057;28;20051;-69
2022/09/04 12:04:14;;;;;;;6.45;2.83;;;;;;;30.69;34.67;95382.91;5094675;27;20065;-68
2022/09/04 12:07:13;;;;;;;3.97;2.92;;;;;;;30.98;35.10;95384.41;5101936;28;20456;-78
2022/09/04 12:10:19;;;;;;;3.47;2.63;;;;;;;30.35;35.98;95379.00;5079994;28;20055;-78
2022/09/04 12:13:01;;;;;;;3.42;2.90;;;;;;;29.07;37.39;95367.66;4999273;28;20074;-79
2022/09/04 12:15:53;;;;;;;13.85;4.07;;;;;;;28.84;38.31;95315.63;5109329;28;20063;-81
2022/09/04 12:18:30;;;;;;;8.77;2.72;;;;;;;29.25;37.00;95356.72;5105515;28;20051;-75
2022/09/04 12:21:21;;;;;;;3.40;2.60;;;;;;;29.07;35.75;95358.84;5104788;28;20043;-80
2022/09/04 12:24:03;;;;;;;6.35;2.53;;;;;;;29.02;37.37;95351.81;5105596;28;20036;-82
2022/09/04 12:26:39;;;;;;;3.08;2.70;;;;;;;28.81;37.37;95348.47;5102248;28;20363;-80
2022/09/04 12:29:29;;;;;;;4.22;3.17;;;;;;;29.06;37.84;95352.69;5083292;28;20044;-76
2022/09/04 12:32:12;;;;;;;6.05;2.70;;;;;;;29.23;37.54;95350.94;5102585;28;20116;-80
2022/09/04 12:34:39;;;;;;;3.38;2.67;;;;;;;29.38;37.61;95344.84;5084720;28;20093;-80
2022/09/04 12:37:28;;;;;;;4.65;2.63;;;;;;;29.87;36.68;95350.09;5103796;28;20067;-78
2022/09/04 12:40:11;;;;;;;3.67;2.50;;;;;;;30.76;35.58;95355.44;5086118;28;20412;-69
2022/09/04 12:42:48;;;;;;;5.70;2.93;;;;;;;31.66;36.16;95360.91;5104140;28;20051;-70
2022/09/04 12:45:51;;;;;;;4.55;2.38;;;;;;;32.83;32.44;95355.34;5100630;28;20472;-70
2022/09/04 12:48:50;;;;;;;3.65;2.20;;;;;;;33.10;32.42;95349.97;5092149;27;20060;-70
2022/09/04 12:51:27;;;;;;;4.30;2.60;;;;;;;33.43;31.41;95349.28;5104612;27;20475;-70
2022/09/04 12:54:07;;;;;;;3.20;2.13;;;;;;;33.79;31.20;95357.09;5090896;28;20629;-70
2022/09/04 12:56:49;;;;;;;3.20;2.28;;;;;;;33.96;30.81;95350.31;5108659;27;20429;-70